Aviation Digital Data Service (ADDS)

Output produced by TAFs form (0753 UTC 25 March 2017)
found at http://www.aviationweather.gov/adds/tafs/
 
METAR text: RJTI 250700Z 12015KT 9999 FEW030 BKN/// 11/M01 Q1019
Conditions at: RJTI (TOKYO HELIPORT , JP) observed 0700 UTC 25 March 2017
Temperature: 11.0°C (52°F)
Dewpoint: -1.0°C (30°F) [RH = 43%]
Pressure (altimeter): 30.09 inches Hg (1019.0 mb)
Winds: from the ESE (120 degrees) at 17 MPH (15 knots; 7.8 m/s)
Visibility: 6 or more miles (10+ km)
Ceiling: at least 12,000 feet AGL
Clouds: few clouds at 3000 feet AGL
Weather: no significant weather observed at this time